sensor_id;sensor_type;location;lat;lon;timestamp;pressure;altitude;pressure_sealevel;temperature;humidity
30873;BME280;17579;42.690;2.586;2022-10-16T00:01:35;97089.03;;;21.32;65.16
30873;BME280;17579;42.690;2.586;2022-10-16T00:04:01;97091.13;;;21.30;65.54
30873;BME280;17579;42.690;2.586;2022-10-16T00:06:28;97087.81;;;21.28;65.16
30873;BME280;17579;42.690;2.586;2022-10-16T00:08:54;97082.44;;;21.28;65.16
30873;BME280;17579;42.690;2.586;2022-10-16T00:11:28;97085.56;;;21.25;65.54
30873;BME280;17579;42.690;2.586;2022-10-16T00:13:57;97082.44;;;21.28;65.17
30873;BME280;17579;42.690;2.586;2022-10-16T00:16:46;97082.03;;;21.24;65.32
30873;BME280;17579;42.690;2.586;2022-10-16T00:19:21;97079.56;;;21.23;64.97
30873;BME280;17579;42.690;2.586;2022-10-16T00:21:46;97083.28;;;21.22;65.00
30873;BME280;17579;42.690;2.586;2022-10-16T00:24:13;97085.38;;;21.20;65.31
30873;BME280;17579;42.690;2.586;2022-10-16T00:26:41;97085.63;;;21.18;65.45
30873;BME280;17579;42.690;2.586;2022-10-16T00:29:10;97091.81;;;21.19;65.36
30873;BME280;17579;42.690;2.586;2022-10-16T00:31:36;97093.91;;;21.17;65.34
30873;BME280;17579;42.690;2.586;2022-10-16T00:34:02;97093.09;;;21.16;65.98
30873;BME280;17579;42.690;2.586;2022-10-16T00:36:29;97097.81;;;21.21;65.84
30873;BME280;17579;42.690;2.586;2022-10-16T00:38:56;97097.38;;;21.24;65.78
30873;BME280;17579;42.690;2.586;2022-10-16T00:41:27;97090.53;;;21.28;65.83
30873;BME280;17579;42.690;2.586;2022-10-16T00:43:58;97087.59;;;21.29;65.73
30873;BME280;17579;42.690;2.586;2022-10-16T00:46:38;97091.56;;;21.27;65.74
30873;BME280;17579;42.690;2.586;2022-10-16T00:49:10;97096.06;;;21.33;66.13
30873;BME280;17579;42.690;2.586;2022-10-16T00:51:43;97097.13;;;21.32;65.87
30873;BME280;17579;42.690;2.586;2022-10-16T00:54:32;97093.81;;;21.30;65.30
30873;BME280;17579;42.690;2.586;2022-10-16T00:57:03;97099.03;;;21.25;65.80
30873;BME280;17579;42.690;2.586;2022-10-16T00:59:35;97097.16;;;21.25;65.67
30873;BME280;17579;42.690;2.586;2022-10-16T01:02:06;97095.50;;;21.24;66.12
30873;BME280;17579;42.690;2.586;2022-10-16T01:04:43;97095.91;;;21.28;65.63
30873;BME280;17579;42.690;2.586;2022-10-16T01:13:21;97099.41;;;21.28;65.94
30873;BME280;17579;42.690;2.586;2022-10-16T01:15:56;97086.97;;;21.27;66.14
30873;BME280;17579;42.690;2.586;2022-10-16T01:18:46;97083.28;;;21.22;65.91
30873;BME280;17579;42.690;2.586;2022-10-16T01:21:22;97083.69;;;21.25;65.86
30873;BME280;17579;42.690;2.586;2022-10-16T01:27:30;97079.56;;;21.23;65.96
30873;BME280;17579;42.690;2.586;2022-10-16T01:30:23;97078.97;;;21.21;66.25
30873;BME280;17579;42.690;2.586;2022-10-16T01:33:03;97082.25;;;21.23;65.85
30873;BME280;17579;42.690;2.586;2022-10-16T01:35:45;97089.53;;;21.22;65.69
30873;BME280;17579;42.690;2.586;2022-10-16T01:38:20;97091.59;;;21.20;65.73
30873;BME280;17579;42.690;2.586;2022-10-16T01:41:01;97084.94;;;21.23;66.43
30873;BME280;17579;42.690;2.586;2022-10-16T01:46:24;97088.25;;;21.25;66.27
30873;BME280;17579;42.690;2.586;2022-10-16T01:49:01;97078.75;;;21.22;66.40
30873;BME280;17579;42.690;2.586;2022-10-16T01:51:45;97077.09;;;21.21;66.41
30873;BME280;17579;42.690;2.586;2022-10-16T01:54:13;97076.22;;;21.27;66.36
30873;BME280;17579;42.690;2.586;2022-10-16T01:56:44;97081.81;;;21.26;66.13
30873;BME280;17579;42.690;2.586;2022-10-16T01:59:37;97079.78;;;21.21;66.47
30873;BME280;17579;42.690;2.586;2022-10-16T02:02:45;97080.41;;;21.23;66.40
30873;BME280;17579;42.690;2.586;2022-10-16T02:08:09;97074.38;;;21.28;65.97
30873;BME280;17579;42.690;2.586;2022-10-16T02:10:36;97081.81;;;21.26;66.53
30873;BME280;17579;42.690;2.586;2022-10-16T02:13:26;97080.41;;;21.23;66.46
30873;BME280;17579;42.690;2.586;2022-10-16T02:15:54;97081.44;;;21.22;66.25
30873;BME280;17579;42.690;2.586;2022-10-16T02:18:31;97084.78;;;21.18;66.67
30873;BME280;17579;42.690;2.586;2022-10-16T02:21:08;97089.63;;;21.09;66.52
30873;BME280;17579;42.690;2.586;2022-10-16T02:24:08;97084.84;;;21.04;66.84
30873;BME280;17579;42.690;2.586;2022-10-16T02:26:45;97089.66;;;21.02;66.66
30873;BME280;17579;42.690;2.586;2022-10-16T02:29:17;97094.00;;;20.97;66.95
30873;BME280;17579;42.690;2.586;2022-10-16T02:31:48;97094.66;;;20.92;66.92
30873;BME280;17579;42.690;2.586;2022-10-16T02:34:18;97091.78;;;20.87;66.95
30873;BME280;17579;42.690;2.586;2022-10-16T02:36:45;97088.28;;;20.86;66.85
30873;BME280;17579;42.690;2.586;2022-10-16T02:39:13;97086.84;;;20.84;67.11
30873;BME280;17579;42.690;2.586;2022-10-16T02:41:39;97085.19;;;20.83;67.02
30873;BME280;17579;42.690;2.586;2022-10-16T02:44:05;97089.75;;;20.82;66.24
30873;BME280;17579;42.690;2.586;2022-10-16T02:46:31;97076.97;;;20.77;66.20
30873;BME280;17579;42.690;2.586;2022-10-16T02:48:56;97092.91;;;20.72;66.41
30873;BME280;17579;42.690;2.586;2022-10-16T02:51:22;97084.84;;;20.72;66.42
30873;BME280;17579;42.690;2.586;2022-10-16T02:53:48;97080.91;;;20.75;66.49
30873;BME280;17579;42.690;2.586;2022-10-16T02:56:14;97079.66;;;20.77;66.19
30873;BME280;17579;42.690;2.586;2022-10-16T02:58:40;97079.44;;;20.79;66.29
30873;BME280;17579;42.690;2.586;2022-10-16T03:01:05;97079.81;;;20.83;66.33
30873;BME280;17579;42.690;2.586;2022-10-16T03:03:31;97072.81;;;20.82;65.94
30873;BME280;17579;42.690;2.586;2022-10-16T03:05:57;97073.41;;;20.84;65.81
30873;BME280;17579;42.690;2.586;2022-10-16T03:08:23;97072.38;;;20.85;66.11
30873;BME280;17579;42.690;2.586;2022-10-16T03:10:51;97081.47;;;20.84;65.91
30873;BME280;17579;42.690;2.586;2022-10-16T03:13:17;97084.97;;;20.84;66.31
30873;BME280;17579;42.690;2.586;2022-10-16T03:15:43;97086.41;;;20.87;66.24
30873;BME280;17579;42.690;2.586;2022-10-16T03:18:09;97085.16;;;20.89;65.75
30873;BME280;17579;42.690;2.586;2022-10-16T03:20:35;97089.50;;;20.90;65.76
30873;BME280;17579;42.690;2.586;2022-10-16T03:23:01;97083.06;;;20.91;66.03
30873;BME280;17579;42.690;2.586;2022-10-16T03:25:28;97090.09;;;20.92;66.06
30873;BME280;17579;42.690;2.586;2022-10-16T03:27:53;97088.84;;;20.95;65.71
30873;BME280;17579;42.690;2.586;2022-10-16T03:30:19;97088.41;;;20.98;65.50
30873;BME280;17579;42.690;2.586;2022-10-16T03:32:46;97085.13;;;20.96;66.02
30873;BME280;17579;42.690;2.586;2022-10-16T03:35:12;97095.69;;;20.98;65.60
30873;BME280;17579;42.690;2.586;2022-10-16T03:37:38;97092.13;;;20.97;65.79
30873;BME280;17579;42.690;2.586;2022-10-16T03:40:05;97084.91;;;20.98;65.98
30873;BME280;17579;42.690;2.586;2022-10-16T03:42:37;97085.72;;;20.98;65.89
30873;BME280;17579;42.690;2.586;2022-10-16T03:45:03;97085.94;;;20.97;66.13
30873;BME280;17579;42.690;2.586;2022-10-16T03:47:29;97082.44;;;20.96;65.75
30873;BME280;17579;42.690;2.586;2022-10-16T03:49:54;97093.19;;;20.96;66.18
30873;BME280;17579;42.690;2.586;2022-10-16T03:52:20;97089.44;;;20.97;66.21
30873;BME280;17579;42.690;2.586;2022-10-16T03:54:46;97091.91;;;20.99;66.46
30873;BME280;17579;42.690;2.586;2022-10-16T03:57:12;97094.19;;;21.02;66.24
30873;BME280;17579;42.690;2.586;2022-10-16T03:59:38;97097.50;;;21.04;66.42
30873;BME280;17579;42.690;2.586;2022-10-16T04:02:04;97099.16;;;21.05;66.28
30873;BME280;17579;42.690;2.586;2022-10-16T04:04:30;97096.06;;;21.01;66.21
30873;BME280;17579;42.690;2.586;2022-10-16T04:06:57;97099.19;;;20.98;65.97
30873;BME280;17579;42.690;2.586;2022-10-16T04:09:45;97100.84;;;20.99;66.20
30873;BME280;17579;42.690;2.586;2022-10-16T04:12:46;97104.13;;;21.01;66.21
30873;BME280;17579;42.690;2.586;2022-10-16T04:15:11;97110.31;;;21.02;66.13
30873;BME280;17579;42.690;2.586;2022-10-16T04:17:37;97109.28;;;21.03;66.16
30873;BME280;17579;42.690;2.586;2022-10-16T04:20:03;97114.66;;;21.03;66.05
30873;BME280;17579;42.690;2.586;2022-10-16T04:22:29;97116.13;;;20.99;66.22
30873;BME280;17579;42.690;2.586;2022-10-16T04:24:55;97108.50;;;20.96;66.14
30873;BME280;17579;42.690;2.586;2022-10-16T04:27:20;97107.91;;;20.93;66.51
30873;BME280;17579;42.690;2.586;2022-10-16T04:29:46;97114.31;;;20.92;66.49
30873;BME280;17579;42.690;2.586;2022-10-16T04:32:11;97111.84;;;20.91;66.75
30873;BME280;17579;42.690;2.586;2022-10-16T04:34:39;97119.09;;;20.90;66.38
30873;BME280;17579;42.690;2.586;2022-10-16T04:37:05;97112.66;;;20.91;66.54
30873;BME280;17579;42.690;2.586;2022-10-16T04:39:30;97117.19;;;20.91;66.74
30873;BME280;17579;42.690;2.586;2022-10-16T04:41:56;97126.31;;;20.90;66.37
30873;BME280;17579;42.690;2.586;2022-10-16T04:44:22;97123.41;;;20.91;66.56
30873;BME280;17579;42.690;2.586;2022-10-16T04:46:50;97129.00;;;20.90;66.34
30873;BME280;17579;42.690;2.586;2022-10-16T04:49:16;97133.34;;;20.91;66.25
30873;BME280;17579;42.690;2.586;2022-10-16T04:51:42;97137.91;;;20.90;66.31
30873;BME280;17579;42.690;2.586;2022-10-16T04:54:09;97139.16;;;20.88;66.43
30873;BME280;17579;42.690;2.586;2022-10-16T04:56:36;97142.06;;;20.86;66.36
30873;BME280;17579;42.690;2.586;2022-10-16T04:59:09;97146.56;;;20.86;66.24
30873;BME280;17579;42.690;2.586;2022-10-16T05:01:35;97148.88;;;20.82;66.80
30873;BME280;17579;42.690;2.586;2022-10-16T05:04:00;97152.81;;;20.80;66.93
30873;BME280;17579;42.690;2.586;2022-10-16T05:06:26;97155.72;;;20.78;66.68
30873;BME280;17579;42.690;2.586;2022-10-16T05:08:52;97160.06;;;20.79;66.75
30873;BME280;17579;42.690;2.586;2022-10-16T05:11:17;97156.53;;;20.79;67.04
30873;BME280;17579;42.690;2.586;2022-10-16T05:13:43;97160.88;;;20.80;67.10
30873;BME280;17579;42.690;2.586;2022-10-16T05:16:08;97154.69;;;20.79;67.06
30873;BME280;17579;42.690;2.586;2022-10-16T05:18:35;97156.53;;;20.79;67.27
30873;BME280;17579;42.690;2.586;2022-10-16T05:21:01;97159.00;;;20.80;67.16
30873;BME280;17579;42.690;2.586;2022-10-16T05:23:27;97160.44;;;20.83;67.30
30873;BME280;17579;42.690;2.586;2022-10-16T05:25:56;97167.06;;;20.80;67.23
30873;BME280;17579;42.690;2.586;2022-10-16T05:28:25;97169.56;;;20.82;67.40
30873;BME280;17579;42.690;2.586;2022-10-16T05:30:52;97167.69;;;20.82;67.42
30873;BME280;17579;42.690;2.586;2022-10-16T05:33:20;97164.38;;;20.80;67.54
30873;BME280;17579;42.690;2.586;2022-10-16T05:35:46;97170.19;;;20.84;67.59
30873;BME280;17579;42.690;2.586;2022-10-16T05:38:13;97168.31;;;20.84;67.44
30873;BME280;17579;42.690;2.586;2022-10-16T05:40:39;97167.28;;;20.85;67.62
30873;BME280;17579;42.690;2.586;2022-10-16T05:43:04;97173.06;;;20.89;67.44
30873;BME280;17579;42.690;2.586;2022-10-16T05:45:30;97167.69;;;20.89;67.24
30873;BME280;17579;42.690;2.586;2022-10-16T05:47:56;97172.00;;;20.90;67.31
30873;BME280;17579;42.690;2.586;2022-10-16T05:50:21;97165.81;;;20.89;66.98
30873;BME280;17579;42.690;2.586;2022-10-16T05:52:47;97162.31;;;20.89;67.32
30873;BME280;17579;42.690;2.586;2022-10-16T05:55:12;97162.09;;;20.90;67.06
30873;BME280;17579;42.690;2.586;2022-10-16T05:57:38;97167.88;;;20.87;66.95
30873;BME280;17579;42.690;2.586;2022-10-16T06:00:04;97164.81;;;20.77;67.14
30873;BME280;17579;42.690;2.586;2022-10-16T06:02:30;97162.16;;;20.70;67.21
30873;BME280;17579;42.690;2.586;2022-10-16T06:04:56;97161.13;;;20.65;67.36
30873;BME280;17579;42.690;2.586;2022-10-16T06:07:22;97164.03;;;20.56;67.00
30873;BME280;17579;42.690;2.586;2022-10-16T06:09:49;97163.66;;;20.46;67.17
30873;BME280;17579;42.690;2.586;2022-10-16T06:12:15;97165.91;;;20.42;67.83
30873;BME280;17579;42.690;2.586;2022-10-16T06:14:41;97165.09;;;20.42;67.77
30873;BME280;17579;42.690;2.586;2022-10-16T06:17:07;97166.75;;;20.43;67.45
30873;BME280;17579;42.690;2.586;2022-10-16T06:19:33;97171.72;;;20.39;66.89
30873;BME280;17579;42.690;2.586;2022-10-16T06:21:58;97165.31;;;20.34;66.74
30873;BME280;17579;42.690;2.586;2022-10-16T06:24:25;97166.56;;;20.31;66.86
30873;BME280;17579;42.690;2.586;2022-10-16T06:26:51;97181.84;;;20.31;66.84
30873;BME280;17579;42.690;2.586;2022-10-16T06:29:16;97179.16;;;20.31;66.29
30873;BME280;17579;42.690;2.586;2022-10-16T06:31:42;97186.63;;;20.29;66.04
30873;BME280;17579;42.690;2.586;2022-10-16T06:34:09;97187.22;;;20.24;66.33
30873;BME280;17579;42.690;2.586;2022-10-16T06:36:37;97185.16;;;20.19;66.20
30873;BME280;17579;42.690;2.586;2022-10-16T06:39:03;97190.16;;;20.16;65.84
30873;BME280;17579;42.690;2.586;2022-10-16T06:41:30;97198.59;;;20.13;66.33
30873;BME280;17579;42.690;2.586;2022-10-16T06:43:55;97202.13;;;20.13;66.35
30873;BME280;17579;42.690;2.586;2022-10-16T06:46:23;97202.34;;;20.12;66.39
30873;BME280;17579;42.690;2.586;2022-10-16T06:48:51;97207.69;;;20.18;66.19
30873;BME280;17579;42.690;2.586;2022-10-16T06:51:18;97209.56;;;20.24;66.37
30873;BME280;17579;42.690;2.586;2022-10-16T06:54:06;97214.69;;;20.33;65.70
30873;BME280;17579;42.690;2.586;2022-10-16T06:56:34;97217.38;;;20.33;66.18
30873;BME280;17579;42.690;2.586;2022-10-16T06:59:00;97217.00;;;20.36;66.04
30873;BME280;17579;42.690;2.586;2022-10-16T07:01:27;97220.69;;;20.41;66.03
30873;BME280;17579;42.690;2.586;2022-10-16T07:03:56;97222.97;;;20.45;65.98
30873;BME280;17579;42.690;2.586;2022-10-16T07:06:24;97224.00;;;20.50;65.30
30873;BME280;17579;42.690;2.586;2022-10-16T07:08:51;97228.94;;;20.53;65.15
30873;BME280;17579;42.690;2.586;2022-10-16T07:11:18;97231.41;;;20.55;65.04
30873;BME280;17579;42.690;2.586;2022-10-16T07:13:45;97232.66;;;20.59;65.45
30873;BME280;17579;42.690;2.586;2022-10-16T07:16:14;97233.88;;;20.63;65.25
30873;BME280;17579;42.690;2.586;2022-10-16T07:18:41;97241.13;;;20.69;64.88
30873;BME280;17579;42.690;2.586;2022-10-16T07:21:13;97239.47;;;20.68;65.17
30873;BME280;17579;42.690;2.586;2022-10-16T07:23:41;97247.53;;;20.68;64.36
30873;BME280;17579;42.690;2.586;2022-10-16T07:26:07;97260.16;;;20.68;64.79
30873;BME280;17579;42.690;2.586;2022-10-16T07:28:33;97265.31;;;20.69;64.42
30873;BME280;17579;42.690;2.586;2022-10-16T07:31:07;97257.47;;;20.68;64.54
30873;BME280;17579;42.690;2.586;2022-10-16T07:33:34;97264.50;;;20.69;64.55
30873;BME280;17579;42.690;2.586;2022-10-16T07:36:00;97273.38;;;20.69;64.35
30873;BME280;17579;42.690;2.586;2022-10-16T07:38:26;97271.31;;;20.71;63.82
30873;BME280;17579;42.690;2.586;2022-10-16T07:40:56;97267.78;;;20.71;64.05
30873;BME280;17579;42.690;2.586;2022-10-16T07:43:23;97269.66;;;20.70;63.42
30873;BME280;17579;42.690;2.586;2022-10-16T07:45:49;97268.41;;;20.73;63.65
30873;BME280;17579;42.690;2.586;2022-10-16T07:48:16;97268.63;;;20.78;63.85
30873;BME280;17579;42.690;2.586;2022-10-16T07:50:43;97269.63;;;20.84;63.64
30873;BME280;17579;42.690;2.586;2022-10-16T07:53:09;97267.34;;;20.87;63.66
30873;BME280;17579;42.690;2.586;2022-10-16T07:55:38;97280.38;;;20.90;63.88
30873;BME280;17579;42.690;2.586;2022-10-16T07:58:05;97276.44;;;20.93;63.84
30873;BME280;17579;42.690;2.586;2022-10-16T08:00:31;97282.00;;;20.98;64.03
30873;BME280;17579;42.690;2.586;2022-10-16T08:02:59;97279.53;;;20.97;64.09
30873;BME280;17579;42.690;2.586;2022-10-16T08:05:31;97296.91;;;21.01;64.77
30873;BME280;17579;42.690;2.586;2022-10-16T08:07:57;97294.00;;;20.96;65.06
30873;BME280;17579;42.690;2.586;2022-10-16T08:10:24;97299.81;;;20.86;65.20
30873;BME280;17579;42.690;2.586;2022-10-16T08:16:02;97305.81;;;20.74;65.45
30873;BME280;17579;42.690;2.586;2022-10-16T08:21:55;97312.66;;;20.77;65.68
30873;BME280;17579;42.690;2.586;2022-10-16T08:24:43;97310.16;;;20.89;65.89
30873;BME280;17579;42.690;2.586;2022-10-16T08:30:52;97302.72;;;20.91;65.61
30873;BME280;17579;42.690;2.586;2022-10-16T08:33:42;97312.19;;;21.00;65.77
30873;BME280;17579;42.690;2.586;2022-10-16T08:36:11;97312.59;;;21.04;66.10
30873;BME280;17579;42.690;2.586;2022-10-16T08:38:55;97312.81;;;20.96;66.12
30873;BME280;17579;42.690;2.586;2022-10-16T08:48:00;97328.28;;;21.20;65.87
30873;BME280;17579;42.690;2.586;2022-10-16T08:51:20;97329.75;;;21.16;65.77
30873;BME280;17579;42.690;2.586;2022-10-16T08:53:58;97343.81;;;21.25;66.17
30873;BME280;17579;42.690;2.586;2022-10-16T08:56:33;97334.50;;;21.21;65.45
30873;BME280;17579;42.690;2.586;2022-10-16T08:59:40;97338.84;;;21.15;65.88
30873;BME280;17579;42.690;2.586;2022-10-16T09:06:05;97338.63;;;21.23;66.04
30873;BME280;17579;42.690;2.586;2022-10-16T09:17:53;97324.34;;;21.23;64.83
30873;BME280;17579;42.690;2.586;2022-10-16T09:23:52;97325.19;;;21.17;65.00
30873;BME280;17579;42.690;2.586;2022-10-16T09:26:19;97318.56;;;21.19;64.80
30873;BME280;17579;42.690;2.586;2022-10-16T09:28:53;97327.47;;;21.13;65.02
30873;BME280;17579;42.690;2.586;2022-10-16T09:31:23;97337.19;;;21.14;64.89
30873;BME280;17579;42.690;2.586;2022-10-16T09:36:49;97334.50;;;21.21;64.95
30873;BME280;17579;42.690;2.586;2022-10-16T09:39:15;97336.34;;;21.20;65.08
30873;BME280;17579;42.690;2.586;2022-10-16T09:41:44;97345.88;;;21.23;65.25
30873;BME280;17579;42.690;2.586;2022-10-16T09:44:25;97345.66;;;21.24;65.08
30873;BME280;17579;42.690;2.586;2022-10-16T09:47:06;97334.66;;;21.33;64.80
30873;BME280;17579;42.690;2.586;2022-10-16T09:49:52;97337.56;;;21.38;64.95
30873;BME280;17579;42.690;2.586;2022-10-16T09:52:26;97335.47;;;21.46;64.81
30873;BME280;17579;42.690;2.586;2022-10-16T09:55:00;97338.34;;;21.52;64.15
30873;BME280;17579;42.690;2.586;2022-10-16T09:57:48;97336.88;;;21.56;64.67
30873;BME280;17579;42.690;2.586;2022-10-16T10:00:16;97332.50;;;21.68;64.21
30873;BME280;17579;42.690;2.586;2022-10-16T10:02:59;97333.22;;;21.82;64.60
30873;BME280;17579;42.690;2.586;2022-10-16T10:05:40;97333.53;;;22.06;63.49
30873;BME280;17579;42.690;2.586;2022-10-16T10:08:05;97328.72;;;22.14;63.22
30873;BME280;17579;42.690;2.586;2022-10-16T10:10:42;97328.31;;;22.11;63.09
30873;BME280;17579;42.690;2.586;2022-10-16T10:13:28;97323.91;;;22.17;62.85
30873;BME280;17579;42.690;2.586;2022-10-16T10:15:53;97323.31;;;22.14;63.42
30873;BME280;17579;42.690;2.586;2022-10-16T10:18:21;97328.53;;;22.09;63.05
30873;BME280;17579;42.690;2.586;2022-10-16T10:20:59;97335.59;;;22.04;63.02
30873;BME280;17579;42.690;2.586;2022-10-16T10:23:57;97335.41;;;22.05;63.25
30873;BME280;17579;42.690;2.586;2022-10-16T10:26:57;97325.81;;;22.09;63.08
30873;BME280;17579;42.690;2.586;2022-10-16T10:32:24;97322.63;;;22.33;62.77
30873;BME280;17579;42.690;2.586;2022-10-16T10:35:11;97320.53;;;22.28;62.22
30873;BME280;17579;42.690;2.586;2022-10-16T10:37:55;97316.22;;;22.27;62.46
30873;BME280;17579;42.690;2.586;2022-10-16T10:40:40;97317.63;;;22.29;62.62
30873;BME280;17579;42.690;2.586;2022-10-16T10:43:26;97316.16;;;22.34;62.23
30873;BME280;17579;42.690;2.586;2022-10-16T10:46:05;97318.81;;;22.40;62.16
30873;BME280;17579;42.690;2.586;2022-10-16T10:48:56;97313.94;;;22.56;62.50
30873;BME280;17579;42.690;2.586;2022-10-16T10:51:53;97305.44;;;22.77;61.84
30873;BME280;17579;42.690;2.586;2022-10-16T10:54:40;97309.81;;;22.97;61.16
30873;BME280;17579;42.690;2.586;2022-10-16T11:08:52;97294.53;;;22.91;60.59
30873;BME280;17579;42.690;2.586;2022-10-16T11:11:39;97291.81;;;22.91;60.73
30873;BME280;17579;42.690;2.586;2022-10-16T11:14:22;97288.44;;;22.95;60.00
30873;BME280;17579;42.690;2.586;2022-10-16T11:16:54;97278.91;;;23.18;60.28
30873;BME280;17579;42.690;2.586;2022-10-16T11:19:54;97283.91;;;23.33;59.94
30873;BME280;17579;42.690;2.586;2022-10-16T11:22:30;97278.13;;;23.48;59.05
30873;BME280;17579;42.690;2.586;2022-10-16T11:25:24;97270.84;;;23.48;59.82
30873;BME280;17579;42.690;2.586;2022-10-16T11:28:02;97265.19;;;23.68;59.26
30873;BME280;17579;42.690;2.586;2022-10-16T11:30:39;97274.25;;;23.74;58.21
30873;BME280;17579;42.690;2.586;2022-10-16T11:33:22;97271.19;;;23.70;58.66
30873;BME280;17579;42.690;2.586;2022-10-16T11:36:25;97268.69;;;23.87;58.78
30873;BME280;17579;42.690;2.586;2022-10-16T11:39:08;97268.38;;;24.08;57.99
30873;BME280;17579;42.690;2.586;2022-10-16T11:41:47;97266.63;;;24.13;57.08
30873;BME280;17579;42.690;2.586;2022-10-16T11:47:27;97261.47;;;24.24;57.13
30873;BME280;17579;42.690;2.586;2022-10-16T11:50:17;97258.44;;;24.20;57.22
30873;BME280;17579;42.690;2.586;2022-10-16T11:52:58;97256.69;;;24.26;57.44
30873;BME280;17579;42.690;2.586;2022-10-16T11:55:34;97256.34;;;24.34;56.75
30873;BME280;17579;42.690;2.586;2022-10-16T11:58:16;97255.31;;;24.47;56.63
30873;BME280;17579;42.690;2.586;2022-10-16T12:04:11;97248.56;;;24.49;56.52
30873;BME280;17579;42.690;2.586;2022-10-16T12:06:59;97256.75;;;24.61;55.98
30873;BME280;17579;42.690;2.586;2022-10-16T12:09:34;97243.56;;;24.65;54.77
30873;BME280;17579;42.690;2.586;2022-10-16T12:12:01;97251.56;;;24.60;55.47
30873;BME280;17579;42.690;2.586;2022-10-16T12:14:37;97243.53;;;24.53;55.47
30873;BME280;17579;42.690;2.586;2022-10-16T12:17:24;97234.63;;;24.52;55.45
30873;BME280;17579;42.690;2.586;2022-10-16T12:20:23;97226.28;;;24.66;55.38
30873;BME280;17579;42.690;2.586;2022-10-16T12:23:05;97218.38;;;24.88;55.30
30873;BME280;17579;42.690;2.586;2022-10-16T12:25:33;97217.69;;;24.93;54.24
30873;BME280;17579;42.690;2.586;2022-10-16T12:28:07;97222.84;;;24.82;54.25
30873;BME280;17579;42.690;2.586;2022-10-16T12:30:43;97211.41;;;24.92;54.33
30873;BME280;17579;42.690;2.586;2022-10-16T12:33:39;97204.84;;;24.88;54.36
30873;BME280;17579;42.690;2.586;2022-10-16T12:36:13;97204.03;;;24.87;54.19
30873;BME280;17579;42.690;2.586;2022-10-16T12:38:50;97201.44;;;24.93;54.17
30873;BME280;17579;42.690;2.586;2022-10-16T12:41:34;97202.81;;;24.95;53.93
30873;BME280;17579;42.690;2.586;2022-10-16T12:44:00;97200.13;;;25.07;53.54
30873;BME280;17579;42.690;2.586;2022-10-16T12:46:39;97197.84;;;25.04;53.59
30873;BME280;17579;42.690;2.586;2022-10-16T12:51:52;97185.63;;;25.13;53.45
30873;BME280;17579;42.690;2.586;2022-10-16T12:54:25;97181.94;;;25.19;53.08
30873;BME280;17579;42.690;2.586;2022-10-16T12:57:13;97181.66;;;25.33;53.18
30873;BME280;17579;42.690;2.586;2022-10-16T12:59:59;97172.69;;;25.44;52.96
30873;BME280;17579;42.690;2.586;2022-10-16T13:02:59;97177.59;;;25.47;52.67
30873;BME280;17579;42.690;2.586;2022-10-16T13:05:59;97167.38;;;25.49;53.25
30873;BME280;17579;42.690;2.586;2022-10-16T13:11:43;97152.78;;;25.67;52.06
30873;BME280;17579;42.690;2.586;2022-10-16T13:17:20;97144.09;;;25.82;52.21
30873;BME280;17579;42.690;2.586;2022-10-16T13:20:16;97143.75;;;25.96;51.69
30873;BME280;17579;42.690;2.586;2022-10-16T13:23:02;97141.25;;;26.06;52.08
30873;BME280;17579;42.690;2.586;2022-10-16T13:26:10;97132.63;;;26.09;51.77
30873;BME280;17579;42.690;2.586;2022-10-16T13:28:41;97123.66;;;26.08;51.46
30873;BME280;17579;42.690;2.586;2022-10-16T13:31:15;97119.81;;;26.04;51.46
30873;BME280;17579;42.690;2.586;2022-10-16T13:33:47;97110.13;;;26.08;51.20
30873;BME280;17579;42.690;2.586;2022-10-16T13:36:21;97106.59;;;26.08;51.03
30873;BME280;17579;42.690;2.586;2022-10-16T13:39:28;97110.44;;;26.12;50.69
30873;BME280;17579;42.690;2.586;2022-10-16T13:42:06;97112.72;;;26.20;50.96
30873;BME280;17579;42.690;2.586;2022-10-16T13:44:48;97096.63;;;26.31;51.01
30873;BME280;17579;42.690;2.586;2022-10-16T13:47:18;97095.44;;;26.43;50.31
30873;BME280;17579;42.690;2.586;2022-10-16T13:49:46;97094.41;;;26.50;49.99
30873;BME280;17579;42.690;2.586;2022-10-16T13:52:20;97092.97;;;26.64;49.91
30873;BME280;17579;42.690;2.586;2022-10-16T13:54:49;97089.84;;;26.72;49.88
30873;BME280;17579;42.690;2.586;2022-10-16T13:57:17;97090.00;;;26.88;50.02
30873;BME280;17579;42.690;2.586;2022-10-16T13:59:43;97092.22;;;26.91;49.91
30873;BME280;17579;42.690;2.586;2022-10-16T14:02:30;97095.34;;;27.05;50.40
30873;BME280;17579;42.690;2.586;2022-10-16T14:04:57;97087.38;;;27.20;49.95
30873;BME280;17579;42.690;2.586;2022-10-16T14:07:28;97090.19;;;27.30;49.92
30873;BME280;17579;42.690;2.586;2022-10-16T14:09:55;97088.72;;;27.45;49.77
30873;BME280;17579;42.690;2.586;2022-10-16T14:12:24;97086.81;;;27.45;49.84
30873;BME280;17579;42.690;2.586;2022-10-16T14:14:54;97090.91;;;27.48;49.52
30873;BME280;17579;42.690;2.586;2022-10-16T14:17:43;97098.78;;;27.44;49.61
30873;BME280;17579;42.690;2.586;2022-10-16T14:20:33;97101.84;;;27.53;49.60
30873;BME280;17579;42.690;2.586;2022-10-16T14:23:17;97098.00;;;27.49;49.71
30873;BME280;17579;42.690;2.586;2022-10-16T14:25:45;97100.44;;;27.51;50.31
30873;BME280;17579;42.690;2.586;2022-10-16T14:28:31;97106.06;;;27.39;50.34
30873;BME280;17579;42.690;2.586;2022-10-16T14:31:40;97101.16;;;27.41;49.99
30873;BME280;17579;42.690;2.586;2022-10-16T14:34:25;97112.97;;;27.29;50.36
30873;BME280;17579;42.690;2.586;2022-10-16T14:36:53;97117.97;;;27.38;50.88
30873;BME280;17579;42.690;2.586;2022-10-16T14:39:21;97125.94;;;27.44;50.60
30873;BME280;17579;42.690;2.586;2022-10-16T14:41:49;97127.56;;;27.45;50.84
30873;BME280;17579;42.690;2.586;2022-10-16T14:44:17;97115.38;;;27.48;51.06
30873;BME280;17579;42.690;2.586;2022-10-16T14:46:43;97115.00;;;27.39;51.05
30873;BME280;17579;42.690;2.586;2022-10-16T14:49:16;97119.00;;;27.31;50.91
30873;BME280;17579;42.690;2.586;2022-10-16T14:51:43;97114.38;;;27.32;51.23
30873;BME280;17579;42.690;2.586;2022-10-16T14:54:11;97115.22;;;27.33;51.14